Position Fahrer Laps Zeit Diff Beste Runde Fahrzeug Status Gesamt Bonuspunkte Strafpunkte
1 Goe Stettler 17 25:56.160 - 1:30.648 Porsche 991.2 GT3 Cup Beendet 23,61 0 0
2 Oliver Kern 17 26:05.062 0:08.902 1:30.879 Porsche 991.2 GT3 Cup Beendet 20,83 0 0
3 Adi Stettler 17 26:12.619 0:16.459 1:31.173 Porsche 991.2 GT3 Cup Beendet 18,06 0 0
4 Gabriel Fürstner 17 26:12.927 0:16.767 1:31.665 Porsche 991.2 GT3 Cup Beendet 15,28 0 0
5 Florian Graf 17 26:13.592 0:17.432 1:31.419 Porsche 991.2 GT3 Cup Beendet 12,5 0 0
6 Niklas Bareuther 17 26:32.128 0:35.968 1:32.250 Porsche 991.2 GT3 Cup Beendet 9,72 0 0
7 Dennis Hillmann 17 26:32.943 0:36.783 1:32.307 Porsche 991.2 GT3 Cup Beendet 6,94 0 0
8 Andre Unger 17 26:33.079 0:36.919 1:31.440 Porsche 991.2 GT3 Cup Beendet 4,17 0 0
9 Daniel Ehrlich 17 26:33.919 0:37.759 1:31.314 Porsche 991.2 GT3 Cup Beendet 1,39 0 0
10 Christian Nesmiyan 17 27:22.318 1:26.158 1:35.787 Porsche 718 Cayman GT4 Clubsport MR Beendet 23,86 0 0
11 Daniel Amhof 17 27:25.886 1:29.726 1:35.916 Porsche 718 Cayman GT4 Clubsport MR Beendet 21,59 0 0
12 Richard Lindhorst 17 27:28.032 1:31.872 1:35.937 Porsche 718 Cayman GT4 Clubsport MR Beendet 19,32 0 0
13 Dennis Manojlovic 16 26:04.901 -1L 1:36.132 Porsche 718 Cayman GT4 Clubsport MR Beendet 17,05 0 0
14 Michael Seyfert 16 26:07.122 -1L 1:35.355 Porsche 718 Cayman GT4 Clubsport MR Beendet 14,77 0 0
15 Joseph Rychciak 16 26:25.091 -1L 1:36.747 Porsche 718 Cayman GT4 Clubsport MR Beendet 12,5 0 0
16 Ralf Waldek 16 26:56.911 -1L 1:36.909 Porsche 718 Cayman GT4 Clubsport MR Beendet 10,23 0 0
17 Maurice Hoogenhout 16 27:20.853 -1L 1:38.406 Porsche 718 Cayman GT4 Clubsport MR Beendet 7,95 0 0
18 Marco Küttelwesch 9 15:58.314 -8L 1:36.471 Porsche 718 Cayman GT4 Clubsport MR Beendet 0 0 0
19 Heiko Schumacher 6 13:49.696 -11L 1:36.879 Porsche 718 Cayman GT4 Clubsport MR Beendet 0 0 0
20 Florian Becker 5 09:23.421 -12L 1:36.441 Porsche 718 Cayman GT4 Clubsport MR Beendet 0 0 0

Rennverlauf

Die schnellsten 5 pro Runde

Runde 1

Pos Rennpos Fahrer Zeit Diff
1 1 Goe Stettler 1:36.591 -
2 2 Oliver Kern 1:37.270 0:00.679
3 3 Florian Graf 1:37.877 0:01.286
4 4 Gabriel Fürstner 1:38.493 0:01.902
5 5 Daniel Ehrlich 1:38.896 0:02.305

Runde 2

Pos Rennpos Fahrer Zeit Diff
1 2 Oliver Kern 1:31.719 -
2 3 Florian Graf 1:31.911 0:00.192
3 6 Andre Unger 1:31.911 0:00.192
4 1 Goe Stettler 1:31.920 0:00.201
5 4 Gabriel Fürstner 1:32.058 0:00.339

Runde 3

Pos Rennpos Fahrer Zeit Diff
1 1 Goe Stettler 1:31.326 -
2 2 Oliver Kern 1:31.482 0:00.156
3 3 Florian Graf 1:31.869 0:00.543
4 4 Gabriel Fürstner 1:31.980 0:00.654
5 7 Niklas Bareuther 1:32.298 0:00.972

Runde 4

Pos Rennpos Fahrer Zeit Diff
1 2 Oliver Kern 1:31.020 -
2 1 Goe Stettler 1:31.176 0:00.156
3 5 Adi Stettler 1:31.302 0:00.282
4 4 Gabriel Fürstner 1:31.677 0:00.657
5 3 Florian Graf 1:31.965 0:00.945

Runde 5

Pos Rennpos Fahrer Zeit Diff
1 1 Goe Stettler 1:30.864 -
2 5 Adi Stettler 1:31.500 0:00.636
3 2 Oliver Kern 1:31.539 0:00.675
4 4 Gabriel Fürstner 1:31.698 0:00.834
5 9 Andre Unger 1:31.893 0:01.029

Runde 6

Pos Rennpos Fahrer Zeit Diff
1 2 Oliver Kern 1:30.879 -
2 1 Goe Stettler 1:30.987 0:00.108
3 8 Daniel Ehrlich 1:31.413 0:00.534
4 5 Adi Stettler 1:31.602 0:00.723
5 9 Andre Unger 1:31.857 0:00.978

Runde 7

Pos Rennpos Fahrer Zeit Diff
1 1 Goe Stettler 1:31.047 -
2 4 Adi Stettler 1:31.173 0:00.126
3 2 Oliver Kern 1:31.242 0:00.195
4 3 Florian Graf 1:31.419 0:00.372
5 9 Andre Unger 1:31.491 0:00.444

Runde 8

Pos Rennpos Fahrer Zeit Diff
1 1 Goe Stettler 1:30.690 -
2 2 Oliver Kern 1:30.906 0:00.216
3 8 Daniel Ehrlich 1:31.428 0:00.738
4 9 Andre Unger 1:31.554 0:00.864
5 4 Adi Stettler 1:31.656 0:00.966

Runde 9

Pos Rennpos Fahrer Zeit Diff
1 1 Goe Stettler 1:30.648 -
2 8 Daniel Ehrlich 1:31.551 0:00.903
3 9 Andre Unger 1:31.728 0:01.080
4 5 Gabriel Fürstner 1:31.806 0:01.158
5 4 Adi Stettler 1:31.914 0:01.266

Runde 10

Pos Rennpos Fahrer Zeit Diff
1 1 Goe Stettler 1:31.218 -
2 8 Daniel Ehrlich 1:31.314 0:00.096
3 9 Andre Unger 1:31.440 0:00.222
4 2 Oliver Kern 1:31.593 0:00.375
5 3 Florian Graf 1:31.791 0:00.573

Runde 11

Pos Rennpos Fahrer Zeit Diff
1 1 Goe Stettler 1:31.425 -
2 8 Daniel Ehrlich 1:31.956 0:00.531
3 2 Oliver Kern 1:32.343 0:00.918
4 5 Gabriel Fürstner 1:32.646 0:01.221
5 3 Florian Graf 1:32.661 0:01.236

Runde 12

Pos Rennpos Fahrer Zeit Diff
1 1 Goe Stettler 1:31.503 -
2 2 Oliver Kern 1:31.620 0:00.117
3 9 Andre Unger 1:31.980 0:00.477
4 3 Gabriel Fürstner 1:32.403 0:00.900
5 7 Daniel Ehrlich 1:32.775 0:01.272

Runde 13

Pos Rennpos Fahrer Zeit Diff
1 1 Goe Stettler 1:31.221 -
2 5 Florian Graf 1:31.563 0:00.342
3 4 Adi Stettler 1:31.653 0:00.432
4 3 Gabriel Fürstner 1:31.842 0:00.621
5 2 Oliver Kern 1:31.866 0:00.645

Runde 14

Pos Rennpos Fahrer Zeit Diff
1 1 Goe Stettler 1:31.062 -
2 2 Oliver Kern 1:31.377 0:00.315
3 3 Gabriel Fürstner 1:32.079 0:01.017
4 5 Florian Graf 1:32.157 0:01.095
5 7 Dennis Hillmann 1:32.307 0:01.245

Runde 15

Pos Rennpos Fahrer Zeit Diff
1 1 Goe Stettler 1:31.548 -
2 8 Andre Unger 1:31.647 0:00.099
3 4 Adi Stettler 1:31.767 0:00.219
4 5 Florian Graf 1:31.809 0:00.261
5 3 Gabriel Fürstner 1:31.839 0:00.291

Runde 16

Pos Rennpos Fahrer Zeit Diff
1 2 Oliver Kern 1:31.239 -
2 8 Andre Unger 1:31.782 0:00.543
3 1 Goe Stettler 1:32.046 0:00.807
4 9 Daniel Ehrlich 1:32.151 0:00.912
5 3 Adi Stettler 1:32.616 0:01.377

Runde 17

Pos Rennpos Fahrer Zeit Diff
1 1 Goe Stettler 1:30.888 -
2 9 Daniel Ehrlich 1:31.701 0:00.813
3 3 Adi Stettler 1:32.067 0:01.179
4 4 Gabriel Fürstner 1:32.115 0:01.227
5 8 Andre Unger 1:32.463 0:01.575

SERVER

0 / 61
virtualracing.org #1 GTM
Training 1Lime Rock Park -- Uphill Chicane
0 / 81
virtualracing.org #3 FS
Training 1Lime Rock Park -- Uphill Chicane
0 / 81
virtualracing.org #4 LSM
Training 1Spa-Francorchamps Endurance
0 / 34
virtualracing.org #5 VRF1S
Training 1Barcelona 2021
0 / 34
virtualracing.org #6 VRCS
Training 1Donington Park National Circuit
0 / 81
virtualracing.org #P1 BTCC
Training 1Oulton Park International
0 / 81
virtualracing.org #P2 CA
Training 1Oulton Park Fosters
0 / 34
virtualracing.org #P3 Mini
Training 1Silverstone International
0 / 33
virtualracing.org #P4 IR18
Training 1Indianapolis Grand Prix
0 / 104
virtualracing.org VRES L
TesttagNuerburgring -- rF2LN 24h
5 / 104
virtualracing.org VRES T
TesttagNuerburgring -- rF2LN 24h
0/31
virtualracing.org#4 GTC Training Standard
TrainingCircuito de Jerez - GP
0/31
virtualracing.org#5 GTC Training A
TrainingDaytona International Speedway - Road Course
0/16
virtualracing.org#30 ALT Training
Trainingaa_dover_speedway-nh